CZFN/ZFN METAR and TAF weather

Enter ICAO airport designator
Station Type Date Time Source
CZFN METAR 2019/05/24 23:00 UTC NOAA

CZFN 242300Z 05014KT 20SM FEW080 OVC220 21/04 A2994 RMK AC1CI8 AC TR R0 AFT 15UTC/LAST STFD OBS/NEXT 271500Z SLP144 DENSITY ALT 1100FT


Station Type Date Time Source
CZFN Decoded METAR 2019/05/24 23:00 UTC NOAA

Fort Norman Airport, Canada (CZFN) 64-55N 125-34W
May 24, 2019 - 07:00 PM EDT / 2019.05.24 2300 UTC
Wind: from the NE (050 degrees) at 16 MPH (14 KT):0
Visibility: 20 mile(s):0
Sky conditions: overcast
Temperature: 69 F (21 C)
Dew Point: 39 F (4 C)
Relative Humidity: 32%
Pressure (altimeter): 29.94 in. Hg (1013 hPa)
ob: CZFN 242300Z 05014KT 20SM FEW080 OVC220 21/04 A2994 RMK AC1CI8 AC TR R0 AFT 15UTC/LAST STFD OBS/NEXT 271500Z SLP144 DENSITY ALT 1100FT
cycle: 23

Station Type Date Time Source
CZFN TAF UTC NOAA

Error!

Example: see airport list